createdAt,value
2019-04-22T00:01:19.782Z,44.30
2019-04-22T00:03:53.293Z,45.10
2019-04-22T00:06:48.039Z,45.10
2019-04-22T00:09:19.535Z,45.70
2019-04-22T00:11:55.695Z,45.10
2019-04-22T00:14:15.074Z,45.30
2019-04-22T00:19:33.861Z,44.70
2019-04-22T00:22:03.334Z,44.10
2019-04-22T00:24:33.585Z,43.90
2019-04-22T00:27:03.923Z,43.40
2019-04-22T00:29:52.265Z,43.20
2019-04-22T00:32:11.670Z,43.50
2019-04-22T00:34:48.539Z,43.40
2019-04-22T00:37:25.236Z,43.10
2019-04-22T00:40:15.950Z,43.30
2019-04-22T00:42:27.502Z,43.80
2019-04-22T00:45:09.458Z,43.30
2019-04-22T00:47:34.903Z,43.30
2019-04-22T00:52:41.634Z,41.90
2019-04-22T00:55:12.356Z,41.80
2019-04-22T00:57:44.221Z,42.00
2019-04-22T01:00:17.923Z,41.90
2019-04-22T01:02:48.310Z,42.00
2019-04-22T01:05:21.388Z,42.20
2019-04-22T01:07:49.898Z,41.40
2019-04-22T01:10:26.449Z,41.30
2019-04-22T01:12:57.229Z,40.10
2019-04-22T01:15:39.117Z,40.20
2019-04-22T01:18:08.260Z,39.40
2019-04-22T01:21:00.576Z,38.90
2019-04-22T01:23:05.493Z,38.20
2019-04-22T01:25:40.394Z,38.30
2019-04-22T01:28:06.399Z,38.00
2019-04-22T01:30:32.677Z,35.60
2019-04-22T01:33:03.551Z,36.60
2019-04-22T01:35:38.599Z,36.80
2019-04-22T01:38:13.382Z,36.80
2019-04-22T01:41:16.499Z,37.00
2019-04-22T01:43:59.257Z,35.80
2019-04-22T01:46:25.015Z,36.40
2019-04-22T01:48:57.400Z,36.30
2019-04-22T01:51:35.413Z,35.90
2019-04-22T01:54:04.143Z,35.60
2019-04-22T01:56:38.275Z,36.20
2019-04-22T01:58:54.906Z,36.40
2019-04-22T02:01:37.156Z,36.00
2019-04-22T02:04:08.910Z,35.70
2019-04-22T02:06:45.743Z,35.20
2019-04-22T02:09:20.392Z,35.00
2019-04-22T02:11:46.646Z,34.90
2019-04-22T02:14:20.691Z,35.10
2019-04-22T02:16:50.335Z,35.00
2019-04-22T02:19:22.518Z,35.40
2019-04-22T02:21:54.075Z,35.60
2019-04-22T02:24:27.819Z,36.70
2019-04-22T02:26:54.609Z,36.90
2019-04-22T02:29:37.307Z,37.20
2019-04-22T02:32:19.427Z,37.50
2019-04-22T02:34:39.852Z,39.40
2019-04-22T02:37:15.244Z,40.90
2019-04-22T02:39:50.463Z,42.90
2019-04-22T02:42:14.332Z,43.20
2019-04-22T02:49:55.189Z,45.20
2019-04-22T02:55:01.341Z,46.70
2019-04-22T03:00:25.076Z,48.10
2019-04-22T03:03:03.854Z,48.40
2019-04-22T03:05:13.142Z,48.80
2019-04-22T03:07:40.940Z,49.60
2019-04-22T03:10:37.275Z,50.40
2019-04-22T03:12:41.950Z,49.90
2019-04-22T03:15:12.158Z,50.20
2019-04-22T03:17:54.224Z,50.00
2019-04-22T03:20:27.430Z,50.00
2019-04-22T03:23:13.751Z,50.30
2019-04-22T03:25:53.537Z,50.00
2019-04-22T03:27:50.509Z,49.70
2019-04-22T03:30:56.445Z,51.10
2019-04-22T03:35:44.978Z,50.90
2019-04-22T03:40:47.285Z,51.60
2019-04-22T03:43:14.055Z,52.90
2019-04-22T03:45:37.966Z,52.60
2019-04-22T03:48:16.287Z,52.90
2019-04-22T03:50:42.514Z,52.70
2019-04-22T03:53:38.446Z,52.30
2019-04-22T03:56:13.248Z,52.10
2019-04-22T03:58:28.382Z,52.20
2019-04-22T04:03:39.991Z,52.60
2019-04-22T04:06:05.205Z,52.70
2019-04-22T04:08:39.137Z,52.80
2019-04-22T04:11:06.941Z,53.00
2019-04-22T04:16:21.362Z,53.10
2019-04-22T04:19:02.612Z,53.10
2019-04-22T04:29:22.622Z,52.30
2019-04-22T04:36:42.647Z,52.50
2019-04-22T04:39:15.080Z,52.70
2019-04-22T04:42:05.475Z,52.30
2019-04-22T04:44:23.404Z,52.00
2019-04-22T04:49:23.876Z,53.00
2019-04-22T04:54:30.527Z,52.20
2019-04-22T04:57:16.957Z,51.90
2019-04-22T04:59:50.932Z,51.30
2019-04-22T05:02:06.659Z,50.50
2019-04-22T05:04:46.500Z,50.50
2019-04-22T05:14:36.821Z,50.80
2019-04-22T05:17:18.834Z,51.10
2019-04-22T05:19:39.397Z,50.90
2019-04-22T05:24:56.255Z,51.90
2019-04-22T05:27:32.978Z,52.00
2019-04-22T05:30:08.398Z,52.10
2019-04-22T05:32:24.630Z,52.00
2019-04-22T05:34:52.821Z,51.60
2019-04-22T05:40:10.562Z,50.70
2019-04-22T05:42:28.440Z,50.60
2019-04-22T05:45:13.291Z,49.80
2019-04-22T05:47:41.850Z,48.60
2019-04-22T05:50:08.177Z,47.80
2019-04-22T05:52:46.844Z,48.20
2019-04-22T05:55:25.140Z,47.70
2019-04-22T05:57:51.244Z,47.40
2019-04-22T06:00:36.977Z,46.10
2019-04-22T06:03:07.238Z,46.40
2019-04-22T06:05:47.287Z,46.50
2019-04-22T06:08:04.116Z,46.20
2019-04-22T06:10:39.221Z,45.90
2019-04-22T06:13:06.704Z,45.90
2019-04-22T06:15:37.574Z,45.20
2019-04-22T06:18:22.563Z,43.80
2019-04-22T06:33:34.762Z,41.70
2019-04-22T06:36:08.693Z,41.60
2019-04-22T06:41:17.156Z,39.70
2019-04-22T06:43:55.940Z,38.80
2019-04-22T06:46:20.473Z,39.00
2019-04-22T06:48:47.946Z,38.80
2019-04-22T06:51:19.755Z,39.70
2019-04-22T06:53:54.066Z,40.20
2019-04-22T06:56:24.574Z,40.60
2019-04-22T06:58:59.425Z,40.30
2019-04-22T07:04:16.631Z,38.50
2019-04-22T07:06:42.339Z,37.60
2019-04-22T07:11:36.657Z,36.60
2019-04-22T07:14:22.384Z,31.90
2019-04-22T07:16:47.630Z,33.00
2019-04-22T07:19:26.575Z,34.50
2019-04-22T07:21:53.601Z,33.50
2019-04-22T07:24:35.694Z,34.30
2019-04-22T07:27:02.634Z,34.00
2019-04-22T07:29:25.291Z,37.00
2019-04-22T07:32:04.710Z,34.50
2019-04-22T07:34:33.286Z,35.70
2019-04-22T07:37:23.353Z,36.70
2019-04-22T07:39:35.650Z,33.30
2019-04-22T07:42:12.616Z,38.20
2019-04-22T07:44:45.089Z,38.10
2019-04-22T07:47:18.475Z,36.60
2019-04-22T07:49:50.836Z,37.00
2019-04-22T07:52:15.983Z,35.40
2019-04-22T07:54:52.518Z,36.20
2019-04-22T07:57:27.431Z,37.50
2019-04-22T07:59:58.047Z,35.40
2019-04-22T08:02:32.760Z,37.10
2019-04-22T08:05:05.356Z,37.40
2019-04-22T08:12:39.030Z,33.10
2019-04-22T08:15:12.678Z,32.80
2019-04-22T08:17:56.504Z,34.50
2019-04-22T08:20:18.900Z,32.90
2019-04-22T08:22:56.020Z,34.00
2019-04-22T08:25:22.028Z,36.30
2019-04-22T08:27:54.997Z,36.00
2019-04-22T08:30:28.806Z,32.40
2019-04-22T08:33:09.854Z,36.40
2019-04-22T08:35:40.877Z,36.90
2019-04-22T08:38:02.588Z,34.10
2019-04-22T08:40:45.569Z,34.80
2019-04-22T08:43:12.653Z,33.10
2019-04-22T08:45:46.449Z,34.00
2019-04-22T08:48:15.064Z,35.90
2019-04-22T08:50:48.905Z,33.90
2019-04-22T08:53:28.176Z,32.80
2019-04-22T08:55:57.950Z,32.30
2019-04-22T09:01:02.592Z,31.20
2019-04-22T09:03:23.937Z,28.40
2019-04-22T09:06:06.408Z,32.70
2019-04-22T09:08:34.199Z,32.10
2019-04-22T09:11:08.252Z,31.00
2019-04-22T09:13:43.806Z,32.00
2019-04-22T09:16:10.368Z,32.40
2019-04-22T09:18:42.964Z,30.50
2019-04-22T09:21:24.120Z,27.20
2019-04-22T09:23:54.031Z,29.70
2019-04-22T09:26:22.914Z,30.70
2019-04-22T09:31:24.250Z,29.40
2019-04-22T09:33:56.007Z,26.90
2019-04-22T09:39:00.845Z,29.10
2019-04-22T09:41:31.777Z,28.10
2019-04-22T09:44:05.644Z,29.20
2019-04-22T09:46:41.308Z,31.70
2019-04-22T09:49:12.285Z,28.70
2019-04-22T09:51:50.474Z,32.10
2019-04-22T09:54:26.548Z,28.40
2019-04-22T09:56:50.106Z,27.10
2019-04-22T09:59:20.194Z,27.60
2019-04-22T10:02:08.227Z,28.20
2019-04-22T10:04:29.125Z,26.90
2019-04-22T10:06:59.624Z,27.80
2019-04-22T10:12:02.638Z,28.20
2019-04-22T10:14:41.423Z,26.00
2019-04-22T10:17:07.772Z,26.90
2019-04-22T10:19:43.230Z,23.80
2019-04-22T10:22:19.532Z,25.50
2019-04-22T10:24:45.335Z,23.50
2019-04-22T10:27:32.726Z,28.00
2019-04-22T10:29:54.288Z,27.20
2019-04-22T10:32:27.637Z,29.50
2019-04-22T10:34:43.590Z,22.90
2019-04-22T10:37:11.742Z,24.30
2019-04-22T10:39:51.348Z,25.50
2019-04-22T10:42:17.409Z,24.60
2019-04-22T10:44:49.889Z,27.20
2019-04-22T10:47:20.597Z,28.70
2019-04-22T10:49:52.258Z,29.30
2019-04-22T10:52:23.668Z,30.00
2019-04-22T10:54:55.720Z,30.90
2019-04-22T10:57:27.728Z,29.30
2019-04-22T10:59:58.617Z,28.50
2019-04-22T11:02:29.862Z,28.70
2019-04-22T11:05:01.693Z,29.60
2019-04-22T11:07:40.433Z,28.20
2019-04-22T11:10:20.500Z,29.50
2019-04-22T11:12:39.545Z,30.60
2019-04-22T11:15:11.775Z,27.30
2019-04-22T11:17:43.774Z,31.60
2019-04-22T11:20:15.494Z,32.50
2019-04-22T11:22:46.711Z,29.80
2019-04-22T11:25:18.144Z,31.00
2019-04-22T11:27:49.368Z,27.50
2019-04-22T11:30:23.829Z,31.00
2019-04-22T11:32:54.226Z,25.40
2019-04-22T11:35:25.791Z,25.30
2019-04-22T11:37:56.835Z,26.70
2019-04-22T11:40:34.601Z,26.90
2019-04-22T11:43:01.773Z,25.00
2019-04-22T11:45:33.251Z,28.20
2019-04-22T11:48:05.499Z,26.60
2019-04-22T11:50:37.711Z,25.90
2019-04-22T11:53:08.956Z,30.50
2019-04-22T11:55:40.602Z,27.90
2019-04-22T11:58:12.703Z,27.80
2019-04-22T12:00:45.017Z,25.70
2019-04-22T12:03:16.877Z,31.30
2019-04-22T12:05:48.074Z,26.90
2019-04-22T12:08:18.916Z,25.30
2019-04-22T12:10:54.813Z,27.00
2019-04-22T12:13:22.047Z,29.70
2019-04-22T12:15:53.411Z,25.20
2019-04-22T12:18:24.940Z,25.30
2019-04-22T12:20:57.079Z,27.20
2019-04-22T12:23:29.295Z,25.10
2019-04-22T12:26:05.900Z,27.50
2019-04-22T12:28:33.012Z,25.10
2019-04-22T12:31:05.725Z,25.90
2019-04-22T12:33:37.125Z,23.10
2019-04-22T12:36:11.009Z,22.50
2019-04-22T12:38:41.856Z,25.00
2019-04-22T12:41:14.004Z,22.60
2019-04-22T12:43:45.193Z,23.30
2019-04-22T12:46:16.376Z,23.50
2019-04-22T12:48:47.231Z,22.80
2019-04-22T12:51:18.879Z,24.30
2019-04-22T12:53:50.909Z,22.10
2019-04-22T12:56:21.854Z,24.80
2019-04-22T12:58:53.945Z,22.20
2019-04-22T13:01:24.823Z,20.10
2019-04-22T13:04:01.427Z,22.40
2019-04-22T13:06:28.034Z,19.10
2019-04-22T13:09:00.047Z,21.30
2019-04-22T13:11:34.817Z,19.60
2019-04-22T13:14:04.953Z,18.30
2019-04-22T13:16:35.855Z,21.10
2019-04-22T13:19:11.217Z,19.80
2019-04-22T13:21:40.578Z,20.90
2019-04-22T13:24:11.392Z,19.30
2019-04-22T13:26:43.075Z,21.60
2019-04-22T13:29:15.077Z,23.70
2019-04-22T13:31:46.572Z,22.30
2019-04-22T13:34:25.844Z,24.20
2019-04-22T13:36:50.323Z,22.70
2019-04-22T13:39:22.564Z,23.10
2019-04-22T13:41:59.293Z,23.00
2019-04-22T13:44:26.019Z,19.80
2019-04-22T13:47:17.022Z,21.80
2019-04-22T13:50:06.041Z,20.80
2019-04-22T13:52:45.143Z,20.20
2019-04-22T13:55:22.064Z,18.10
2019-04-22T13:57:27.528Z,18.60
2019-04-22T13:59:45.968Z,21.00
2019-04-22T14:02:30.540Z,20.40
2019-04-22T14:05:01.356Z,18.20
2019-04-22T14:07:32.826Z,19.60
2019-04-22T14:10:04.413Z,18.10
2019-04-22T14:12:35.183Z,19.40
2019-04-22T14:15:06.820Z,18.70
2019-04-22T14:17:38.865Z,19.70
2019-04-22T14:20:10.920Z,17.40
2019-04-22T14:22:41.779Z,17.80
2019-04-22T14:25:14.404Z,19.10
2019-04-22T14:27:52.360Z,19.90
2019-04-22T14:30:18.813Z,17.90
2019-04-22T14:32:51.133Z,18.60
2019-04-22T14:35:22.974Z,18.70
2019-04-22T14:37:54.499Z,19.00
2019-04-22T14:40:28.119Z,18.50
2019-04-22T14:43:23.349Z,17.50
2019-04-22T14:46:03.955Z,18.10
2019-04-22T14:48:33.531Z,18.40
2019-04-22T14:50:51.851Z,19.70
2019-04-22T14:53:29.013Z,17.20
2019-04-22T14:55:40.337Z,17.20
2019-04-22T14:58:11.294Z,18.60
2019-04-22T15:00:42.363Z,19.20
2019-04-22T15:03:13.525Z,21.40
2019-04-22T15:05:44.431Z,17.80
2019-04-22T15:08:15.187Z,17.00
2019-04-22T15:10:46.165Z,16.90
2019-04-22T15:13:17.793Z,21.00
2019-04-22T15:16:26.025Z,18.70
2019-04-22T15:19:19.964Z,20.40
2019-04-22T15:21:52.493Z,19.90
2019-04-22T15:24:27.578Z,22.00
2019-04-22T15:27:00.576Z,22.60
2019-04-22T15:29:31.781Z,23.70
2019-04-22T15:32:03.212Z,22.50
2019-04-22T15:34:34.645Z,24.00
2019-04-22T15:37:06.560Z,21.40
2019-04-22T15:39:37.321Z,22.00
2019-04-22T15:42:17.080Z,23.40
2019-04-22T15:44:42.195Z,24.60
2019-04-22T15:47:13.353Z,22.90
2019-04-22T15:49:45.743Z,23.10
2019-04-22T15:52:16.796Z,23.40
2019-04-22T15:54:50.794Z,22.60
2019-04-22T15:57:20.390Z,23.30
2019-04-22T16:00:06.834Z,22.20
2019-04-22T16:02:23.683Z,23.20
2019-04-22T16:04:54.634Z,23.40
2019-04-22T16:07:27.298Z,23.90
2019-04-22T16:09:57.821Z,23.30
2019-04-22T16:12:35.912Z,23.50
2019-04-22T16:15:03.079Z,25.40
2019-04-22T16:17:34.741Z,23.70
2019-04-22T16:20:07.002Z,25.50
2019-04-22T16:23:03.451Z,23.90
2019-04-22T16:25:59.250Z,23.40
2019-04-22T16:28:31.311Z,25.10
2019-04-22T16:31:03.637Z,23.20
2019-04-22T16:33:36.423Z,24.10
2019-04-22T16:36:07.274Z,23.40
2019-04-22T16:38:38.386Z,23.10
2019-04-22T16:41:10.749Z,23.40
2019-04-22T16:43:42.849Z,24.30
2019-04-22T16:46:13.881Z,23.90
2019-04-22T16:48:45.411Z,24.50
2019-04-22T16:51:16.380Z,23.60
2019-04-22T16:53:47.526Z,23.60
2019-04-22T16:56:18.361Z,23.50
2019-04-22T16:58:50.581Z,25.50
2019-04-22T17:01:58.800Z,25.10
2019-04-22T17:04:46.578Z,25.00
2019-04-22T17:07:20.215Z,25.30
2019-04-22T17:09:52.153Z,26.30
2019-04-22T17:12:23.923Z,27.30
2019-04-22T17:15:01.812Z,25.70
2019-04-22T17:17:28.587Z,26.40
2019-04-22T17:19:59.662Z,27.00
2019-04-22T17:22:31.407Z,25.50
2019-04-22T17:25:02.732Z,28.10
2019-04-22T17:27:34.556Z,26.50
2019-04-22T17:30:08.514Z,28.20
2019-04-22T17:32:39.867Z,27.70
2019-04-22T17:35:12.444Z,29.50
2019-04-22T17:37:43.222Z,27.90
2019-04-22T17:40:29.896Z,29.20
2019-04-22T17:43:14.186Z,29.60
2019-04-22T17:46:17.695Z,29.70
2019-04-22T17:49:10.501Z,30.60
2019-04-22T17:51:50.354Z,29.20
2019-04-22T17:54:17.050Z,30.90
2019-04-22T17:56:49.680Z,30.60
2019-04-22T17:59:20.400Z,31.50
2019-04-22T18:01:51.532Z,31.50
2019-04-22T18:04:04.906Z,31.00
2019-04-22T18:07:05.432Z,31.50
2019-04-22T18:09:43.431Z,31.90
2019-04-22T18:12:05.413Z,33.30
2019-04-22T18:14:57.693Z,34.50
2019-04-22T18:17:13.505Z,35.50
2019-04-22T18:19:39.944Z,35.80
2019-04-22T18:22:10.563Z,36.70
2019-04-22T18:24:35.183Z,36.80
2019-04-22T18:27:31.946Z,36.80
2019-04-22T18:29:48.662Z,37.10
2019-04-22T18:32:09.938Z,37.40
2019-04-22T18:34:44.331Z,38.10
2019-04-22T18:37:19.877Z,37.90
2019-04-22T18:40:04.684Z,38.90
2019-04-22T18:42:27.020Z,38.40
2019-04-22T18:45:21.724Z,38.70
2019-04-22T18:47:32.391Z,38.70
2019-04-22T18:50:03.412Z,38.90
2019-04-22T18:53:10.099Z,39.10
2019-04-22T18:55:42.493Z,39.40
2019-04-22T18:58:14.611Z,39.60
2019-04-22T19:00:36.761Z,39.80
2019-04-22T19:03:15.992Z,39.30
2019-04-22T19:06:10.681Z,39.20
2019-04-22T19:08:33.369Z,39.20
2019-04-22T19:14:00.010Z,38.80
2019-04-22T19:16:25.558Z,38.70
2019-04-22T19:18:50.504Z,38.80
2019-04-22T19:21:14.894Z,39.10
2019-04-22T19:23:50.585Z,39.40
2019-04-22T19:26:30.853Z,39.70
2019-04-22T19:28:58.786Z,40.30
2019-04-22T19:31:40.748Z,40.40
2019-04-22T19:33:59.323Z,40.40
2019-04-22T19:36:36.409Z,40.90
2019-04-22T19:39:01.660Z,41.00
2019-04-22T19:41:37.697Z,40.70
2019-04-22T19:44:08.416Z,41.10
2019-04-22T19:46:43.757Z,40.90
2019-04-22T19:49:21.958Z,41.00
2019-04-22T19:51:53.677Z,41.20
2019-04-22T19:54:19.006Z,41.10
2019-04-22T19:56:42.799Z,40.90
2019-04-22T19:59:46.492Z,40.80
2019-04-22T20:02:35.859Z,40.90
2019-04-22T20:05:23.186Z,41.10
2019-04-22T20:07:41.605Z,41.30
2019-04-22T20:10:22.358Z,41.40
2019-04-22T20:12:50.164Z,41.50
2019-04-22T20:15:22.726Z,41.40
2019-04-22T20:18:22.386Z,41.30
2019-04-22T20:20:34.392Z,41.40
2019-04-22T20:23:02.348Z,41.60
2019-04-22T20:25:35.942Z,41.80
2019-04-22T20:28:17.719Z,42.10
2019-04-22T20:30:39.698Z,42.10
2019-04-22T20:33:13.847Z,42.40
2019-04-22T20:35:43.597Z,42.00
2019-04-22T20:38:19.764Z,42.60
2019-04-22T20:40:53.048Z,42.50
2019-04-22T20:43:33.322Z,43.20
2019-04-22T20:46:02.988Z,42.80
2019-04-22T20:48:17.587Z,42.40
2019-04-22T20:50:58.217Z,41.70
2019-04-22T20:53:36.204Z,42.40
2019-04-22T20:56:05.130Z,42.40
2019-04-22T20:58:42.194Z,42.60
2019-04-22T21:01:02.697Z,43.00
2019-04-22T21:03:33.352Z,42.00
2019-04-22T21:06:11.748Z,42.60
2019-04-22T21:08:52.349Z,42.40
2019-04-22T21:11:19.695Z,42.20
2019-04-22T21:13:51.800Z,42.60
2019-04-22T21:16:31.470Z,42.10
2019-04-22T21:18:47.364Z,42.30
2019-04-22T21:21:32.856Z,42.50
2019-04-22T21:23:55.475Z,42.80
2019-04-22T21:26:29.344Z,42.70
2019-04-22T21:29:04.405Z,42.80
2019-04-22T21:31:41.290Z,42.70
2019-04-22T21:34:06.091Z,43.20
2019-04-22T21:36:43.021Z,42.50
2019-04-22T21:39:12.505Z,43.30
2019-04-22T21:41:47.446Z,42.50
2019-04-22T21:44:18.473Z,43.10
2019-04-22T21:46:57.826Z,42.90
2019-04-22T21:49:25.444Z,43.00
2019-04-22T21:52:13.228Z,42.70
2019-04-22T21:54:31.659Z,43.30
2019-04-22T21:57:26.550Z,43.00
2019-04-22T22:00:00.703Z,43.30
2019-04-22T22:02:31.439Z,43.30
2019-04-22T22:04:55.186Z,43.30
2019-04-22T22:07:16.058Z,43.00
2019-04-22T22:10:04.221Z,43.50
2019-04-22T22:12:37.834Z,43.70
2019-04-22T22:15:06.911Z,43.30
2019-04-22T22:17:35.303Z,43.40
2019-04-22T22:20:13.333Z,43.60
2019-04-22T22:22:52.441Z,43.90
2019-04-22T22:25:21.238Z,43.80
2019-04-22T22:27:47.551Z,44.00
2019-04-22T22:30:48.531Z,44.10
2019-04-22T22:33:01.381Z,44.30
2019-04-22T22:35:34.899Z,44.60
2019-04-22T22:38:01.726Z,44.80
2019-04-22T22:40:21.079Z,44.90
2019-04-22T22:42:51.211Z,45.40
2019-04-22T22:45:31.720Z,45.60
2019-04-22T22:48:13.663Z,45.70
2019-04-22T22:50:46.415Z,45.50
2019-04-22T22:55:46.193Z,45.40
2019-04-22T22:58:24.533Z,46.00
2019-04-22T23:00:50.527Z,46.30
2019-04-22T23:03:46.022Z,46.50
2019-04-22T23:06:10.161Z,46.60
2019-04-22T23:08:32.931Z,47.00
2019-04-22T23:11:05.245Z,48.00
2019-04-22T23:13:37.144Z,46.80
2019-04-22T23:16:02.007Z,47.40
2019-04-22T23:18:19.819Z,47.20
2019-04-22T23:20:53.620Z,47.40
2019-04-22T23:23:49.334Z,48.30
2019-04-22T23:26:38.501Z,47.60
2019-04-22T23:29:07.268Z,48.50
2019-04-22T23:31:46.882Z,48.40
2019-04-22T23:34:32.482Z,48.30
2019-04-22T23:37:10.461Z,48.70
2019-04-22T23:39:54.560Z,48.80
2019-04-22T23:42:23.592Z,48.80
2019-04-22T23:44:56.315Z,48.90
2019-04-22T23:47:26.515Z,49.00
2019-04-22T23:50:01.046Z,48.70
2019-04-22T23:52:45.879Z,48.90
2019-04-22T23:55:18.096Z,48.90
2019-04-22T23:57:47.820Z,48.90
